Time;durP1;ratioP1;P1;durP2;ratioP2;P2;SDS_P1;SDS_P2;PMS_P1;PMS_P2;Temp;Humidity;BMP_temperature;BMP_pressure;BME280_temperature;BME280_humidity;BME280_pressure;Samples;Min_cycle;Max_cycle;Signal;HPM_P1;HPM_P2
2021/07/13 00:00:38;;;;;;;13.57;6.95;;;;;;;19.15;68.24;100281.19;5101557;28;20044;-79
2021/07/13 00:03:06;;;;;;;10.23;7.03;;;;;;;19.14;68.26;100286.53;5082975;28;20043;-77
2021/07/13 00:05:33;;;;;;;10.23;6.43;;;;;;;19.06;68.33;100287.66;5099585;28;20127;-78
2021/07/13 00:08:04;;;;;;;12.73;7.20;;;;;;;19.02;68.25;100286.06;5096446;28;20573;-77
2021/07/13 00:10:39;;;;;;;9.57;6.90;;;;;;;19.04;68.43;100289.50;5078933;28;20056;-78
2021/07/13 00:13:06;;;;;;;10.20;7.68;;;;;;;19.02;68.80;100282.56;5100323;28;20522;-80
2021/07/13 00:15:42;;;;;;;20.15;7.53;;;;;;;18.98;68.79;100283.59;5077087;28;20146;-79
2021/07/13 00:18:09;;;;;;;10.50;7.57;;;;;;;19.02;68.83;100279.94;5096152;28;20035;-78
2021/07/13 00:20:35;;;;;;;9.23;7.05;;;;;;;19.02;69.03;100277.31;5095634;28;20047;-78
2021/07/13 00:23:02;;;;;;;10.80;7.38;;;;;;;19.01;68.83;100280.84;5103409;28;20051;-77
2021/07/13 00:25:30;;;;;;;14.95;7.95;;;;;;;18.97;68.95;100277.47;5100027;28;20099;-79
2021/07/13 00:27:56;;;;;;;12.77;11.23;;;;;;;18.94;69.00;100269.63;5094960;28;20130;-80
2021/07/13 00:30:23;;;;;;;11.90;10.38;;;;;;;18.94;68.98;100286.31;5077457;28;20044;-77
2021/07/13 00:32:50;;;;;;;10.80;7.43;;;;;;;18.88;69.05;100275.97;5095054;28;20411;-78
2021/07/13 00:35:17;;;;;;;16.00;7.47;;;;;;;18.88;69.09;100281.25;5094367;28;20079;-77
2021/07/13 00:37:43;;;;;;;10.60;7.20;;;;;;;18.82;69.09;100274.41;5094477;28;20571;-77
2021/07/13 00:40:11;;;;;;;10.73;6.60;;;;;;;18.78;69.16;100282.50;5094760;28;20043;-79
2021/07/13 00:42:38;;;;;;;9.02;6.63;;;;;;;18.75;69.34;100280.84;5093856;28;20054;-78
2021/07/13 00:45:06;;;;;;;9.13;6.97;;;;;;;18.69;69.36;100269.63;5097345;28;20044;-80
2021/07/13 00:47:32;;;;;;;9.90;7.82;;;;;;;18.68;69.45;100284.59;5104118;28;20393;-79
2021/07/13 00:49:59;;;;;;;12.95;7.05;;;;;;;18.58;69.71;100270.88;5092703;28;20116;-79
2021/07/13 00:52:26;;;;;;;10.15;7.55;;;;;;;18.52;69.59;100274.59;5093395;28;20525;-82
2021/07/13 00:54:52;;;;;;;11.77;7.63;;;;;;;18.61;69.88;100296.25;5094273;28;20125;-82
2021/07/13 00:57:19;;;;;;;11.23;7.22;;;;;;;18.57;69.78;100289.38;5076892;28;20519;-83
2021/07/13 00:59:47;;;;;;;9.77;7.18;;;;;;;18.44;70.07;100275.75;5093327;28;20043;-79
2021/07/13 01:02:15;;;;;;;10.15;7.60;;;;;;;18.54;70.00;100289.50;5095033;28;20039;-78
2021/07/13 01:04:46;;;;;;;10.02;7.70;;;;;;;18.54;70.09;100295.63;5077314;28;20032;-80
2021/07/13 01:07:50;;;;;;;10.98;8.25;;;;;;;18.52;70.07;100298.31;5091010;28;20082;-81
2021/07/13 01:10:22;;;;;;;12.68;8.60;;;;;;;18.50;70.22;100294.88;5101942;28;20058;-79
2021/07/13 01:13:02;;;;;;;14.10;7.60;;;;;;;18.46;70.26;100298.53;5133156;28;20023;-79
2021/07/13 01:15:36;;;;;;;13.27;7.88;;;;;;;18.38;70.32;100292.63;5136255;28;20019;-78
2021/07/13 01:18:10;;;;;;;11.88;7.90;;;;;;;18.27;70.10;100276.34;5110983;28;20016;-80
2021/07/13 01:21:14;;;;;;;11.65;8.27;;;;;;;18.42;70.42;100304.78;5117453;28;20030;-78
2021/07/13 01:23:51;;;;;;;12.90;8.23;;;;;;;18.42;70.50;100301.31;5133493;28;20046;-79
2021/07/13 01:26:44;;;;;;;13.63;7.80;;;;;;;18.41;70.62;100302.22;5116688;28;20047;-79
2021/07/13 01:29:14;;;;;;;12.05;7.97;;;;;;;18.39;70.44;100298.78;5134871;28;20062;-78
2021/07/13 01:31:43;;;;;;;11.82;7.80;;;;;;;18.37;70.67;100285.66;5136085;28;20016;-77
2021/07/13 01:34:16;;;;;;;15.57;8.10;;;;;;;18.35;70.78;100288.34;5116737;28;20046;-80
2021/07/13 01:36:48;;;;;;;16.65;8.57;;;;;;;18.33;70.94;100289.28;5116389;28;20040;-78
2021/07/13 01:39:15;;;;;;;;;;;;;;;18.42;70.99;100298.69;5081181;28;20042;-78
2021/07/13 01:41:45;;;;;;;15.27;8.63;;;;;;;18.33;71.05;100282.25;5111405;28;20010;-80
2021/07/13 01:44:11;;;;;;;12.10;7.88;;;;;;;18.33;71.02;100279.63;5102238;28;20036;-78
2021/07/13 01:46:38;;;;;;;13.07;7.70;;;;;;;18.40;71.11;100288.19;5074113;28;20044;-80
2021/07/13 01:49:06;;;;;;;10.30;8.05;;;;;;;18.44;71.24;100300.34;5082590;28;20125;-78
2021/07/13 01:51:33;;;;;;;15.45;8.48;;;;;;;18.41;71.37;100275.88;5113936;28;20112;-80
2021/07/13 01:54:09;;;;;;;11.95;8.07;;;;;;;18.56;71.45;100303.47;5103630;28;20098;-78
2021/07/13 01:56:38;;;;;;;10.88;8.10;;;;;;;18.46;71.50;100281.84;5116125;28;20043;-77
2021/07/13 01:59:06;;;;;;;10.73;7.93;;;;;;;18.63;71.39;100290.03;5114271;28;20039;-81
2021/07/13 02:01:33;;;;;;;11.07;7.03;;;;;;;18.63;71.53;100286.53;5113002;28;20072;-79
2021/07/13 02:04:03;;;;;;;8.70;7.07;;;;;;;18.76;71.33;100302.78;5096109;28;20422;-80
2021/07/13 02:06:31;;;;;;;12.77;7.97;;;;;;;18.72;71.33;100287.97;5113569;28;20104;-78
2021/07/13 02:09:00;;;;;;;12.23;7.40;;;;;;;18.82;71.45;100295.50;5109649;28;20417;-80
2021/07/13 02:11:28;;;;;;;11.23;7.57;;;;;;;18.80;71.35;100278.88;5093316;28;20044;-79
2021/07/13 02:13:54;;;;;;;15.00;7.80;;;;;;;18.86;71.33;100288.38;5075096;28;20645;-79
2021/07/13 02:16:21;;;;;;;13.32;9.02;;;;;;;18.98;71.46;100288.88;5094225;28;20040;-80
2021/07/13 02:18:48;;;;;;;13.68;8.38;;;;;;;19.05;71.42;100298.28;5100367;28;20042;-79
2021/07/13 02:21:15;;;;;;;11.40;8.50;;;;;;;19.05;71.29;100290.38;5093160;28;20043;-79
2021/07/13 02:23:42;;;;;;;11.18;8.27;;;;;;;19.04;71.30;100271.03;5092649;28;20071;-79
2021/07/13 02:26:13;;;;;;;14.45;8.40;;;;;;;19.14;71.19;100279.47;5092539;28;20043;-78
2021/07/13 02:28:43;;;;;;;9.70;8.07;;;;;;;19.16;71.06;100275.00;5093858;28;20458;-81
2021/07/13 02:31:13;;;;;;;10.75;7.35;;;;;;;19.39;71.19;100302.31;5074770;28;20387;-77
2021/07/13 02:34:01;;;;;;;12.82;7.57;;;;;;;19.48;70.77;100299.31;5093311;28;20127;-78
2021/07/13 02:36:32;;;;;;;12.02;7.95;;;;;;;19.61;70.77;100298.84;5092369;28;20055;-77
2021/07/13 02:39:00;;;;;;;10.85;7.28;;;;;;;19.67;70.50;100295.97;5074734;28;20036;-80
2021/07/13 02:41:28;;;;;;;15.23;7.55;;;;;;;19.67;70.31;100282.78;5084618;28;20131;-78
2021/07/13 02:43:56;;;;;;;17.65;9.00;;;;;;;19.78;70.29;100288.47;5057112;28;20040;-80
2021/07/13 02:46:26;;;;;;;17.83;8.70;;;;;;;19.85;70.10;100282.03;5057859;28;20489;-78
2021/07/13 02:48:52;;;;;;;14.05;7.53;;;;;;;20.04;70.04;100296.34;5081877;28;20101;-80
2021/07/13 02:51:19;;;;;;;11.40;6.25;;;;;;;20.04;69.71;100286.63;5096840;28;20500;-79
2021/07/13 02:53:48;;;;;;;13.48;8.10;;;;;;;20.16;69.64;100291.41;5095351;28;20529;-79
2021/07/13 02:56:15;;;;;;;9.43;6.78;;;;;;;20.29;69.62;100302.34;5094963;28;20491;-78
2021/07/13 02:58:42;;;;;;;14.82;7.90;;;;;;;20.28;69.66;100278.59;5095672;28;20060;-77
2021/07/13 03:01:09;;;;;;;8.25;6.88;;;;;;;20.47;69.61;100295.41;5099082;28;20119;-77
2021/07/13 03:03:37;;;;;;;10.38;7.88;;;;;;;20.52;69.28;100289.06;5102222;28;20036;-78
2021/07/13 03:06:03;;;;;;;9.13;7.63;;;;;;;20.64;69.27;100291.16;5078921;28;20478;-80
2021/07/13 03:08:29;;;;;;;11.50;7.78;;;;;;;20.74;68.90;100286.38;5095400;28;20048;-81
2021/07/13 03:10:58;;;;;;;9.77;7.47;;;;;;;20.90;69.09;100292.72;5097749;28;20423;-78
2021/07/13 03:13:25;;;;;;;10.98;7.07;;;;;;;21.00;68.75;100273.78;5078306;28;20047;-77
2021/07/13 03:15:52;;;;;;;13.77;7.00;;;;;;;21.10;68.38;100280.41;5094827;28;20067;-77
2021/07/13 03:18:18;;;;;;;11.10;7.13;;;;;;;21.20;68.10;100278.19;5078295;28;20039;-78
2021/07/13 03:20:48;;;;;;;11.88;8.07;;;;;;;21.31;67.81;100270.59;5096256;28;20043;-82
2021/07/13 03:23:16;;;;;;;12.50;7.40;;;;;;;21.53;67.10;100285.47;5078540;28;20052;-78
2021/07/13 03:25:44;;;;;;;8.75;7.25;;;;;;;21.64;66.85;100288.53;5096319;28;20081;-79
2021/07/13 03:28:11;;;;;;;9.85;7.50;;;;;;;21.69;66.63;100280.34;5094318;28;20043;-79
2021/07/13 03:30:38;;;;;;;9.98;7.63;;;;;;;21.86;66.04;100284.84;5107353;28;20038;-80
2021/07/13 03:33:04;;;;;;;8.50;7.20;;;;;;;21.97;65.82;100290.47;5096152;28;20040;-79
2021/07/13 03:35:31;;;;;;;12.45;7.65;;;;;;;22.11;65.68;100279.19;5096306;28;20032;-77
2021/07/13 03:37:58;;;;;;;15.00;7.50;;;;;;;22.25;64.94;100283.81;5077778;28;20070;-79
2021/07/13 03:40:26;;;;;;;11.70;7.78;;;;;;;22.43;64.82;100286.50;5077801;28;20181;-80
2021/07/13 03:42:53;;;;;;;11.27;7.60;;;;;;;22.52;64.38;100275.44;5064086;28;20040;-80
2021/07/13 03:45:19;;;;;;;11.85;8.30;;;;;;;22.62;64.25;100261.72;5075398;28;20096;-78
2021/07/13 03:47:53;;;;;;;12.35;7.97;;;;;;;22.96;63.54;100294.41;5077084;28;20473;-79
2021/07/13 03:50:26;;;;;;;9.57;8.57;;;;;;;23.14;63.13;100288.13;5076194;28;20661;-80
2021/07/13 03:52:52;;;;;;;14.23;8.77;;;;;;;23.29;62.41;100288.25;5095852;28;20134;-80
2021/07/13 03:55:19;;;;;;;13.48;7.90;;;;;;;23.35;61.58;100264.03;5094935;28;20071;-80
2021/07/13 03:57:45;;;;;;;14.05;8.70;;;;;;;23.63;60.96;100283.75;5080041;28;20040;-82
2021/07/13 04:00:14;;;;;;;13.75;8.50;;;;;;;23.79;59.97;100285.53;5098823;28;20468;-80
2021/07/13 04:02:41;;;;;;;14.45;8.27;;;;;;;23.94;59.46;100283.81;5098550;28;20051;-82
2021/07/13 04:05:09;;;;;;;9.55;7.93;;;;;;;23.95;58.74;100262.44;5095494;28;20056;-81
2021/07/13 04:07:36;;;;;;;12.40;8.38;;;;;;;23.86;58.26;100218.66;5098823;28;20539;-80
2021/07/13 04:10:05;;;;;;;13.13;7.75;;;;;;;24.45;57.59;100278.22;5103321;28;20048;-79
2021/07/13 04:12:32;;;;;;;9.90;7.55;;;;;;;24.61;57.12;100275.50;5097480;28;20468;-81
2021/07/13 04:14:58;;;;;;;13.35;8.23;;;;;;;24.74;56.24;100276.50;5095484;28;20075;-80
2021/07/13 04:17:24;;;;;;;11.32;7.60;;;;;;;24.84;56.36;100265.31;5077871;28;20150;-82
2021/07/13 04:19:51;;;;;;;14.38;8.57;;;;;;;24.89;55.40;100241.94;5101135;28;20097;-81
2021/07/13 04:22:17;;;;;;;12.65;8.68;;;;;;;25.16;54.82;100273.94;5096809;28;20044;-81
2021/07/13 04:24:43;;;;;;;11.13;7.85;;;;;;;25.11;54.56;100241.44;5097235;28;20058;-81
2021/07/13 04:27:09;;;;;;;15.60;7.97;;;;;;;25.21;54.10;100231.94;5080053;28;20104;-80
2021/07/13 04:29:35;;;;;;;13.00;7.30;;;;;;;25.54;53.24;100246.72;5098723;28;20043;-80
2021/07/13 04:32:01;;;;;;;14.27;7.70;;;;;;;25.76;53.22;100261.28;5103358;28;20042;-80
2021/07/13 04:34:27;;;;;;;12.80;7.85;;;;;;;25.82;52.43;100247.56;5107482;28;20036;-79
2021/07/13 04:36:53;;;;;;;12.95;8.10;;;;;;;26.06;51.83;100265.56;5091168;28;20047;-80
2021/07/13 04:39:18;;;;;;;13.27;8.02;;;;;;;26.05;51.28;100244.31;5106929;28;20043;-81
2021/07/13 04:41:45;;;;;;;12.70;7.43;;;;;;;26.24;51.11;100250.19;5075826;28;20085;-81
2021/07/13 04:44:10;;;;;;;17.77;7.85;;;;;;;26.39;49.93;100253.59;5065113;28;20032;-81
2021/07/13 04:46:36;;;;;;;18.63;7.90;;;;;;;26.49;49.43;100253.81;5084383;28;20043;-82
2021/07/13 04:49:02;;;;;;;20.55;9.05;;;;;;;26.64;48.58;100259.91;5087564;28;20036;-83
2021/07/13 04:51:28;;;;;;;17.88;8.55;;;;;;;26.82;48.20;100267.63;5077914;28;20107;-80
2021/07/13 04:53:54;;;;;;;13.60;8.13;;;;;;;27.01;47.98;100268.06;5113918;28;20064;-82
2021/07/13 04:56:21;;;;;;;19.23;7.93;;;;;;;27.20;47.24;100256.06;5114329;28;20040;-82
2021/07/13 04:58:48;;;;;;;22.02;9.32;;;;;;;27.39;47.26;100257.41;5115315;28;20088;-81
2021/07/13 05:01:14;;;;;;;17.33;9.85;;;;;;;27.54;46.40;100247.47;5098576;28;20036;-83
2021/07/13 05:03:40;;;;;;;16.90;8.35;;;;;;;27.60;46.26;100226.47;5115638;28;20299;-82
2021/07/13 05:06:06;;;;;;;17.95;9.85;;;;;;;27.60;45.88;100231.81;5097795;28;20032;-81
2021/07/13 05:08:32;;;;;;;23.40;9.43;;;;;;;27.81;45.44;100236.53;5080788;28;20048;-81
2021/07/13 05:10:58;;;;;;;17.58;9.38;;;;;;;28.04;45.36;100255.34;5111407;28;20080;-81
2021/07/13 05:13:24;;;;;;;20.67;9.40;;;;;;;27.75;44.60;100181.72;5095740;28;20328;-81
2021/07/13 05:15:50;;;;;;;17.33;8.82;;;;;;;28.13;43.99;100224.41;5113984;28;20092;-80
2021/07/13 05:18:16;;;;;;;18.60;8.95;;;;;;;28.21;44.06;100225.53;5114343;28;20036;-82
2021/07/13 05:20:53;;;;;;;18.73;9.73;;;;;;;28.11;43.64;100195.13;5110188;28;20039;-81
2021/07/13 05:23:19;;;;;;;16.50;8.68;;;;;;;28.62;43.34;100250.06;5106547;28;20035;-81
2021/07/13 05:25:48;;;;;;;12.25;9.07;;;;;;;28.73;43.47;100243.00;5089369;28;20044;-83
2021/07/13 05:28:14;;;;;;;17.17;8.18;;;;;;;28.85;43.32;100234.88;5107210;28;20499;-80
2021/07/13 05:30:43;;;;;;;14.48;7.68;;;;;;;29.08;42.92;100239.41;5110408;28;20122;-81
2021/07/13 05:33:10;;;;;;;15.98;7.95;;;;;;;29.21;42.68;100247.28;5094665;28;20035;-80
2021/07/13 05:35:36;;;;;;;12.20;7.60;;;;;;;29.39;42.49;100232.44;5113033;28;20107;-81
2021/07/13 05:38:05;;;;;;;12.60;7.72;;;;;;;29.59;41.87;100228.09;5079481;28;20059;-82
2021/07/13 05:40:31;;;;;;;15.15;8.55;;;;;;;29.87;41.70;100243.75;5106125;28;20070;-80
2021/07/13 05:42:57;;;;;;;13.07;7.22;;;;;;;30.03;41.22;100248.69;5095394;28;20117;-80
2021/07/13 05:45:24;;;;;;;14.90;8.85;;;;;;;29.98;41.34;100224.94;5063513;28;20036;-81
2021/07/13 05:47:53;;;;;;;14.20;8.20;;;;;;;30.23;40.59;100228.22;5041627;28;20047;-80
2021/07/13 05:50:20;;;;;;;18.25;8.50;;;;;;;30.61;40.56;100236.69;5093908;28;20040;-79
2021/07/13 05:52:49;;;;;;;13.40;8.18;;;;;;;31.41;40.27;100242.22;5094874;28;20054;-80
2021/07/13 05:55:20;;;;;;;12.80;7.70;;;;;;;32.87;38.37;100180.31;5079684;28;20129;-81
2021/07/13 05:57:46;;;;;;;16.50;8.20;;;;;;;35.09;35.82;100218.22;5061357;28;20438;-81
2021/07/13 06:00:14;;;;;;;20.88;8.02;;;;;;;36.89;32.92;100224.81;5096011;28;20439;-81
2021/07/13 06:02:39;;;;;;;14.00;7.45;;;;;;;38.45;30.83;100222.06;5095978;28;20036;-82
2021/07/13 06:05:05;;;;;;;13.63;6.80;;;;;;;39.73;29.18;100223.63;5097144;28;20040;-82
2021/07/13 06:07:31;;;;;;;15.23;7.13;;;;;;;40.80;27.50;100218.97;5063056;28;20039;-81
2021/07/13 06:09:57;;;;;;;12.07;6.97;;;;;;;41.96;25.44;100199.97;5066942;28;20064;-82
2021/07/13 06:12:23;;;;;;;17.30;7.15;;;;;;;43.30;23.71;100225.22;5081040;28;20099;-82
2021/07/13 06:14:49;;;;;;;16.58;7.40;;;;;;;43.90;22.56;100213.84;5110051;28;20032;-81
2021/07/13 06:17:15;;;;;;;16.23;7.78;;;;;;;44.63;21.34;100211.44;5099855;28;20042;-81
2021/07/13 06:19:43;;;;;;;13.10;7.88;;;;;;;45.50;20.28;100223.19;5102520;28;20032;-82
2021/07/13 06:22:09;;;;;;;11.82;7.30;;;;;;;46.02;18.92;100218.94;5102559;28;20051;-81
2021/07/13 06:24:36;;;;;;;15.55;7.57;;;;;;;46.84;18.34;100217.19;5109167;28;20039;-82
2021/07/13 06:27:03;;;;;;;16.13;8.10;;;;;;;47.55;18.14;100216.03;5088496;28;20043;-81
2021/07/13 06:29:29;;;;;;;12.48;7.28;;;;;;;48.21;16.98;100215.41;5099343;28;20078;-81
2021/07/13 06:31:55;;;;;;;11.95;6.95;;;;;;;48.76;16.51;100220.28;5099846;28;20071;-80
2021/07/13 06:34:21;;;;;;;9.40;6.72;;;;;;;48.99;16.20;100222.75;5097937;28;20177;-81
2021/07/13 06:36:47;;;;;;;15.15;7.55;;;;;;;49.47;15.07;100235.13;5098467;28;20052;-82
2021/07/13 06:39:14;;;;;;;9.52;6.55;;;;;;;49.34;14.46;100194.91;5085710;28;20035;-81
2021/07/13 06:41:40;;;;;;;11.65;6.80;;;;;;;49.76;14.19;100226.50;5067863;28;20063;-81
2021/07/13 06:44:06;;;;;;;15.32;7.45;;;;;;;49.61;13.78;100178.28;5083851;28;20044;-81
2021/07/13 06:46:33;;;;;;;11.75;6.55;;;;;;;50.34;13.21;100219.13;5078428;28;20037;-82
2021/07/13 06:49:01;;;;;;;11.75;6.95;;;;;;;50.76;13.03;100222.06;5085318;28;20033;-82
2021/07/13 06:51:27;;;;;;;13.57;6.82;;;;;;;51.45;12.52;100230.25;5081972;28;20111;-81
2021/07/13 06:53:56;;;;;;;13.50;6.53;;;;;;;51.81;11.49;100221.94;5081850;28;20096;-82
2021/07/13 06:56:21;;;;;;;10.15;6.50;;;;;;;51.83;11.40;100228.84;5099232;28;20067;-81
2021/07/13 06:58:48;;;;;;;9.98;5.57;;;;;;;51.77;11.71;100196.69;5099152;28;20728;-82
2021/07/13 07:01:14;;;;;;;7.97;4.90;;;;;;;52.47;11.37;100227.59;5065064;28;20048;-82
2021/07/13 07:03:39;;;;;;;8.40;5.28;;;;;;;52.68;10.62;100229.16;5082559;28;20043;-81
2021/07/13 07:06:06;;;;;;;6.35;5.45;;;;;;;52.77;10.96;100225.81;5065073;28;20040;-82
2021/07/13 07:08:32;;;;;;;6.22;4.80;;;;;;;53.06;9.99;100214.78;5099263;28;20047;-82
2021/07/13 07:11:01;;;;;;;6.53;4.40;;;;;;;53.36;9.72;100207.38;5083201;28;20137;-80
2021/07/13 07:13:27;;;;;;;9.10;3.90;;;;;;;53.44;9.49;100219.81;5051675;28;20498;-83
2021/07/13 07:15:53;;;;;;;7.97;3.80;;;;;;;53.67;9.28;100198.75;5086526;28;20040;-78
2021/07/13 07:18:20;;;;;;;6.95;4.10;;;;;;;54.05;9.24;100206.44;5101852;28;20093;-76
2021/07/13 07:20:46;;;;;;;5.47;3.95;;;;;;;54.23;8.44;100217.88;5083381;28;20059;-77
2021/07/13 07:23:12;;;;;;;4.07;3.78;;;;;;;54.36;8.27;100222.78;5081353;28;20040;-82
2021/07/13 07:25:39;;;;;;;4.18;3.78;;;;;;;54.50;8.19;100214.53;5079296;28;20090;-80
2021/07/13 07:28:05;;;;;;;5.13;3.55;;;;;;;54.52;8.14;100205.84;5094886;28;20036;-81
2021/07/13 07:30:32;;;;;;;5.85;4.10;;;;;;;54.83;7.65;100197.09;5096070;28;20177;-80
2021/07/13 07:32:58;;;;;;;3.92;3.55;;;;;;;55.04;7.32;100192.88;5087845;28;20032;-78
2021/07/13 07:35:28;;;;;;;6.22;4.05;;;;;;;55.04;7.43;100187.31;5096255;28;20048;-78
2021/07/13 07:37:54;;;;;;;4.93;3.85;;;;;;;54.46;8.08;100219.84;5077470;28;20089;-79
2021/07/13 07:40:21;;;;;;;4.93;4.05;;;;;;;54.18;8.04;100208.47;5075022;28;20040;-77
2021/07/13 07:42:52;;;;;;;4.72;3.92;;;;;;;54.31;7.96;100206.13;5089752;28;20044;-79
2021/07/13 07:45:20;;;;;;;6.07;3.90;;;;;;;54.48;7.99;100202.84;5077288;28;20039;-78
2021/07/13 07:47:46;;;;;;;4.80;4.25;;;;;;;54.91;7.58;100197.22;5108899;28;20123;-81
2021/07/13 07:50:14;;;;;;;4.32;3.90;;;;;;;55.18;7.61;100197.66;5081309;28;20050;-82
2021/07/13 07:52:40;;;;;;;6.35;4.13;;;;;;;55.39;7.48;100198.97;5111561;28;20039;-80
2021/07/13 07:55:09;;;;;;;5.95;4.15;;;;;;;55.03;7.48;100205.16;5116053;28;20139;-79
2021/07/13 07:57:35;;;;;;;4.57;3.80;;;;;;;54.85;7.29;100192.84;5114021;28;20503;-80
2021/07/13 08:00:01;;;;;;;6.15;4.28;;;;;;;54.69;7.60;100192.25;5076704;28;20323;-79
2021/07/13 08:02:27;;;;;;;6.63;3.85;;;;;;;54.67;7.89;100186.16;5094834;28;20241;-77
2021/07/13 08:04:53;;;;;;;5.07;4.03;;;;;;;55.70;6.90;100188.44;5095347;28;20503;-80
2021/07/13 08:07:19;;;;;;;7.07;4.13;;;;;;;56.05;6.65;100194.44;5093854;28;20051;-77
2021/07/13 08:09:45;;;;;;;5.60;4.20;;;;;;;55.85;7.16;100190.91;5093633;28;20117;-81
2021/07/13 08:12:11;;;;;;;4.72;4.20;;;;;;;55.37;6.77;100187.31;5076643;28;20062;-80
2021/07/13 08:14:37;;;;;;;4.85;4.32;;;;;;;55.44;6.80;100181.31;5094767;28;20044;-82
2021/07/13 08:17:03;;;;;;;4.65;4.18;;;;;;;55.79;6.42;100179.03;5093553;28;20081;-79
2021/07/13 08:19:29;;;;;;;4.95;4.45;;;;;;;56.29;6.89;100191.41;5072809;28;20037;-77
2021/07/13 08:21:55;;;;;;;5.05;4.57;;;;;;;56.11;6.70;100173.66;5074970;28;20035;-76
2021/07/13 08:24:21;;;;;;;5.68;4.55;;;;;;;56.23;6.80;100164.78;5073067;28;20090;-80
2021/07/13 08:26:47;;;;;;;5.03;4.53;;;;;;;56.28;6.96;100161.88;5074497;28;20044;-79
2021/07/13 08:29:13;;;;;;;5.72;4.13;;;;;;;56.02;6.82;100167.16;5039495;28;20037;-78
2021/07/13 08:31:39;;;;;;;6.35;4.90;;;;;;;56.06;6.63;100162.59;5093411;28;20465;-78
2021/07/13 08:34:05;;;;;;;5.50;4.50;;;;;;;55.20;6.58;100159.16;5093720;28;20055;-78
2021/07/13 08:36:31;;;;;;;6.65;4.90;;;;;;;54.13;7.19;100158.50;5094856;28;20044;-82
2021/07/13 08:38:57;;;;;;;8.02;4.40;;;;;;;53.77;7.87;100158.88;5092913;28;20050;-79
2021/07/13 08:41:25;;;;;;;5.97;4.03;;;;;;;54.13;7.90;100152.09;5082604;28;20099;-80
2021/07/13 08:43:51;;;;;;;4.50;4.10;;;;;;;54.49;7.70;100146.88;5076916;28;20040;-81
2021/07/13 08:46:20;;;;;;;5.65;4.32;;;;;;;54.84;7.20;100134.69;5076450;28;20040;-80
2021/07/13 08:48:49;;;;;;;6.20;4.10;;;;;;;55.27;6.97;100147.66;5081252;28;20048;-77
2021/07/13 08:51:17;;;;;;;8.15;4.50;;;;;;;54.71;6.81;100148.25;5095908;28;20046;-83
2021/07/13 08:53:43;;;;;;;5.65;4.00;;;;;;;55.40;6.86;100135.69;5095105;28;20068;-82
2021/07/13 08:56:09;;;;;;;5.13;4.35;;;;;;;55.80;6.52;100133.28;5094224;28;20051;-79
2021/07/13 08:58:34;;;;;;;6.07;4.65;;;;;;;55.31;7.00;100141.16;5093192;28;20040;-79
2021/07/13 09:01:00;;;;;;;4.57;4.25;;;;;;;54.67;6.66;100141.63;5091597;28;20071;-78
2021/07/13 09:03:30;;;;;;;4.32;3.97;;;;;;;53.62;7.50;100142.38;5091235;28;20040;-81
2021/07/13 09:05:59;;;;;;;4.85;4.15;;;;;;;54.42;7.33;100134.47;5091026;28;20068;-76
2021/07/13 09:08:27;;;;;;;5.28;4.22;;;;;;;54.85;7.24;100137.16;5074869;28;20149;-79
2021/07/13 09:11:05;;;;;;;4.70;4.25;;;;;;;55.56;6.58;100129.84;5098151;28;20427;-77
2021/07/13 09:13:35;;;;;;;8.82;4.50;;;;;;;56.28;6.66;100112.47;5097087;28;20058;-79
2021/07/13 09:16:04;;;;;;;5.50;4.47;;;;;;;56.63;6.84;100141.81;5095233;28;20091;-79
2021/07/13 09:18:34;;;;;;;;;;;;;;;56.25;6.85;100137.41;5092695;28;20094;-82
2021/07/13 09:21:14;;;;;;;6.63;4.90;;;;;;;55.54;7.10;100133.75;5091711;28;20459;-81
2021/07/13 09:24:11;;;;;;;6.50;4.65;;;;;;;55.71;6.37;100132.34;5092589;28;20036;-80
2021/07/13 09:26:57;;;;;;;5.13;4.30;;;;;;;55.91;6.33;100133.91;5096758;28;20047;-80
2021/07/13 09:29:44;;;;;;;5.00;4.45;;;;;;;55.61;6.50;100126.97;5075328;28;20043;-81
2021/07/13 09:32:16;;;;;;;4.68;4.15;;;;;;;56.04;6.38;100132.25;5092157;28;20054;-80
2021/07/13 09:34:57;;;;;;;4.60;4.13;;;;;;;55.76;5.93;100125.81;5092161;28;20125;-78
2021/07/13 09:37:43;;;;;;;7.45;4.50;;;;;;;55.01;6.88;100129.41;5090088;28;20044;-81
2021/07/13 09:40:13;;;;;;;5.28;4.10;;;;;;;55.58;6.43;100131.19;5089892;28;20039;-79
2021/07/13 09:42:44;;;;;;;5.82;4.43;;;;;;;55.07;6.38;100122.59;5061175;28;20048;-80
2021/07/13 09:45:24;;;;;;;5.95;4.50;;;;;;;52.88;7.67;100119.09;5072084;28;20037;-81
2021/07/13 09:47:53;;;;;;;5.63;4.85;;;;;;;52.56;7.77;100117.66;5076204;28;20051;-79
2021/07/13 09:50:40;;;;;;;5.18;4.40;;;;;;;53.04;7.61;100114.28;5088934;28;20040;-79
2021/07/13 09:53:17;;;;;;;4.50;4.10;;;;;;;53.12;7.40;100121.13;5072074;28;20082;-81
2021/07/13 09:55:46;;;;;;;4.65;4.18;;;;;;;52.81;7.55;100110.28;5073060;28;20089;-77
2021/07/13 09:58:19;;;;;;;4.90;4.25;;;;;;;52.38;7.61;100114.44;5091387;28;20040;-79
2021/07/13 10:00:59;;;;;;;4.13;3.83;;;;;;;52.16;7.75;100105.66;5091222;28;20040;-81
2021/07/13 10:03:27;;;;;;;6.05;4.10;;;;;;;52.58;8.08;100109.88;5092582;28;20079;-79
2021/07/13 10:05:54;;;;;;;8.15;4.45;;;;;;;53.05;7.67;100104.81;5090988;28;20518;-78
2021/07/13 10:08:22;;;;;;;9.70;4.28;;;;;;;53.39;7.27;100086.47;5091089;28;20039;-81
2021/07/13 10:10:49;;;;;;;7.78;4.00;;;;;;;53.18;7.22;100102.50;5091446;28;20555;-80
2021/07/13 10:13:16;;;;;;;5.95;4.10;;;;;;;53.04;7.50;100102.34;5092389;28;20449;-79
2021/07/13 10:15:44;;;;;;;6.07;4.10;;;;;;;53.02;7.75;100097.06;5074171;28;20122;-83
2021/07/13 10:18:10;;;;;;;6.57;4.07;;;;;;;52.79;8.25;100093.09;5092623;28;20067;-78
2021/07/13 10:20:39;;;;;;;6.07;4.00;;;;;;;53.03;7.89;100089.59;5092888;28;20060;-80
2021/07/13 10:23:07;;;;;;;5.00;4.15;;;;;;;52.87;7.27;100098.00;5091088;28;20495;-80
2021/07/13 10:25:36;;;;;;;6.70;4.20;;;;;;;53.04;7.92;100091.25;5092884;28;20032;-80
2021/07/13 10:28:02;;;;;;;4.30;3.90;;;;;;;53.27;7.32;100089.63;5092255;28;20966;-80
2021/07/13 10:30:28;;;;;;;4.22;3.60;;;;;;;53.08;7.78;100095.09;5092884;28;20282;-82
2021/07/13 10:32:55;;;;;;;5.40;3.80;;;;;;;51.84;7.98;100082.75;5074224;28;20059;-79
2021/07/13 10:35:32;;;;;;;4.40;4.00;;;;;;;50.07;8.79;100067.19;5097751;28;20058;-80
2021/07/13 10:38:20;;;;;;;4.50;4.10;;;;;;;48.44;9.71;100078.38;5085976;28;20082;-82
2021/07/13 10:40:47;;;;;;;6.25;4.15;;;;;;;46.81;11.20;100082.03;5099434;28;20043;-79
2021/07/13 10:43:22;;;;;;;4.72;3.75;;;;;;;45.64;11.42;100075.50;5079627;28;20044;-82
2021/07/13 10:46:07;;;;;;;5.35;4.03;;;;;;;44.75;12.41;100073.50;5071830;28;20549;-79
2021/07/13 10:48:35;;;;;;;5.05;4.32;;;;;;;43.58;13.35;100076.13;5090265;28;20058;-82
2021/07/13 10:51:09;;;;;;;4.80;4.38;;;;;;;42.74;13.83;100068.94;5091069;28;20039;-78
2021/07/13 10:53:38;;;;;;;5.15;4.03;;;;;;;41.98;14.75;100088.59;5091986;28;20043;-79
2021/07/13 10:56:04;;;;;;;6.13;4.20;;;;;;;41.40;14.99;100078.31;5083311;28;20036;-82
2021/07/13 10:58:40;;;;;;;6.40;4.25;;;;;;;40.92;15.80;100063.78;5092082;28;20050;-78
2021/07/13 11:01:14;;;;;;;7.90;4.32;;;;;;;40.55;15.99;100084.22;5094108;28;20112;-79
2021/07/13 11:03:41;;;;;;;6.10;4.13;;;;;;;40.10;16.39;100079.19;5092998;28;20071;-80
2021/07/13 11:06:11;;;;;;;6.82;4.10;;;;;;;39.62;16.93;100080.72;5097341;28;20040;-79
2021/07/13 11:08:40;;;;;;;4.35;4.05;;;;;;;39.13;17.80;100079.69;5078349;28;20636;-79
2021/07/13 11:11:15;;;;;;;5.63;4.30;;;;;;;38.61;18.08;100081.63;5056712;28;20060;-78
2021/07/13 11:13:44;;;;;;;5.75;4.57;;;;;;;38.30;18.37;100082.66;5090752;28;20210;-80
2021/07/13 11:16:11;;;;;;;10.23;4.10;;;;;;;37.84;18.57;100079.06;5074123;28;20059;-81
2021/07/13 11:18:39;;;;;;;5.43;4.47;;;;;;;37.27;19.59;100056.88;5070663;28;20568;-81
2021/07/13 11:21:24;;;;;;;6.97;4.55;;;;;;;37.02;19.38;100059.78;5095233;28;20070;-82
2021/07/13 11:24:11;;;;;;;9.35;5.10;;;;;;;36.96;19.84;100062.38;5077708;28;20097;-78
2021/07/13 11:26:47;;;;;;;6.97;4.78;;;;;;;36.89;20.15;100060.34;5077841;28;20043;-81
2021/07/13 11:29:24;;;;;;;6.97;4.63;;;;;;;36.80;20.65;100052.44;5096883;28;20035;-79
2021/07/13 11:31:59;;;;;;;6.15;4.07;;;;;;;36.52;20.40;100050.22;5093503;28;20071;-81